createdAt,value
2023-02-25T00:04:52.755Z,478.53
2023-02-25T00:09:59.921Z,479.67
2023-02-25T00:15:07.225Z,478.67
2023-02-25T00:20:14.402Z,478.32
2023-02-25T00:25:21.573Z,478.14
2023-02-25T00:30:28.796Z,478.63
2023-02-25T00:35:35.951Z,475.84
2023-02-25T00:40:43.145Z,474.50
2023-02-25T00:45:50.327Z,473.40
2023-02-25T00:50:57.504Z,472.82
2023-02-25T00:56:04.668Z,471.86
2023-02-25T01:01:11.893Z,472.48
2023-02-25T01:06:19.468Z,474.62
2023-02-25T01:11:26.327Z,476.02
2023-02-25T01:16:33.627Z,474.40
2023-02-25T01:21:40.702Z,472.97
2023-02-25T01:26:47.875Z,473.21
2023-02-25T01:31:55.355Z,474.12
2023-02-25T01:37:02.302Z,474.96
2023-02-25T01:42:09.432Z,474.01
2023-02-25T01:47:16.644Z,473.93
2023-02-25T01:52:23.911Z,472.79
2023-02-25T01:57:31.095Z,471.45
2023-02-25T02:02:38.366Z,471.84
2023-02-25T02:07:45.457Z,472.69
2023-02-25T02:12:52.763Z,472.46
2023-02-25T02:17:59.961Z,469.41
2023-02-25T02:23:07.167Z,470.31
2023-02-25T02:28:14.414Z,470.47
2023-02-25T02:33:21.624Z,470.89
2023-02-25T02:38:28.787Z,470.62
2023-02-25T02:43:35.950Z,470.44
2023-02-25T02:48:43.162Z,470.66
2023-02-25T02:53:50.325Z,471.82
2023-02-25T02:58:57.570Z,471.19
2023-02-25T03:04:04.945Z,470.49
2023-02-25T03:09:11.923Z,469.26
2023-02-25T03:14:19.181Z,467.89
2023-02-25T03:19:26.360Z,468.93
2023-02-25T03:24:33.548Z,467.40
2023-02-25T03:29:40.732Z,467.09
2023-02-25T03:34:47.942Z,466.70
2023-02-25T03:39:55.142Z,466.73
2023-02-25T03:45:02.369Z,465.90
2023-02-25T03:50:09.607Z,465.50
2023-02-25T03:55:16.733Z,465.41
2023-02-25T04:00:23.917Z,464.39
2023-02-25T04:05:31.131Z,464.80
2023-02-25T04:10:38.289Z,463.41
2023-02-25T04:15:45.497Z,464.34
2023-02-25T04:20:52.689Z,464.25
2023-02-25T04:25:59.827Z,463.24
2023-02-25T04:31:07.280Z,462.74
2023-02-25T04:36:14.225Z,463.24
2023-02-25T04:41:21.403Z,463.84
2023-02-25T04:46:28.600Z,463.89
2023-02-25T04:51:35.783Z,464.31
2023-02-25T04:56:42.955Z,464.97
2023-02-25T05:01:50.193Z,465.48
2023-02-25T05:06:57.363Z,465.25
2023-02-25T05:12:04.537Z,464.86
2023-02-25T05:17:11.711Z,464.76
2023-02-25T05:22:18.919Z,464.31
2023-02-25T05:27:26.098Z,464.20
2023-02-25T05:32:33.545Z,464.42
2023-02-25T05:37:40.580Z,465.10
2023-02-25T05:42:47.709Z,465.32
2023-02-25T05:47:54.927Z,465.26
2023-02-25T05:53:02.160Z,465.67
2023-02-25T05:58:09.387Z,465.70
2023-02-25T06:03:16.589Z,465.30
2023-02-25T06:08:23.782Z,464.96
2023-02-25T06:13:30.943Z,465.16
2023-02-25T06:18:38.122Z,464.84
2023-02-25T06:23:45.335Z,465.36
2023-02-25T06:28:52.492Z,464.24
2023-02-25T06:33:59.658Z,464.15
2023-02-25T06:39:06.889Z,463.60
2023-02-25T06:44:15.857Z,463.34
2023-02-25T06:49:21.204Z,462.69
2023-02-25T06:54:28.385Z,462.58
2023-02-25T06:59:35.565Z,461.79
2023-02-25T07:04:44.134Z,462.12
2023-02-25T07:09:49.965Z,462.18
2023-02-25T07:14:57.216Z,462.80
2023-02-25T07:20:04.412Z,462.65
2023-02-25T07:25:11.706Z,463.23
2023-02-25T07:30:18.782Z,463.85
2023-02-25T07:35:26.204Z,463.12
2023-02-25T07:40:33.474Z,462.93
2023-02-25T07:45:40.644Z,461.44
2023-02-25T07:50:47.884Z,459.72
2023-02-25T07:55:55.153Z,459.84
2023-02-25T08:01:02.310Z,460.85
2023-02-25T08:06:09.488Z,461.08
2023-02-25T08:11:16.671Z,461.42
2023-02-25T08:16:23.986Z,461.72
2023-02-25T08:21:31.054Z,462.08
2023-02-25T08:26:38.273Z,462.88
2023-02-25T08:31:45.618Z,463.24
2023-02-25T08:36:52.692Z,463.61
2023-02-25T08:41:59.902Z,463.85
2023-02-25T08:47:07.175Z,463.17
2023-02-25T08:52:14.248Z,463.31
2023-02-25T08:57:21.441Z,463.76
2023-02-25T09:02:28.605Z,463.35
2023-02-25T09:07:36.016Z,463.77
2023-02-25T09:12:43.219Z,463.66
2023-02-25T09:17:50.415Z,463.86
2023-02-25T09:22:57.660Z,464.84
2023-02-25T09:28:04.869Z,464.32
2023-02-25T09:33:12.149Z,464.10
2023-02-25T09:38:19.310Z,464.41
2023-02-25T09:43:26.586Z,464.64
2023-02-25T09:48:33.673Z,464.95
2023-02-25T09:53:40.859Z,464.84
2023-02-25T09:58:48.069Z,464.97
2023-02-25T10:03:55.231Z,465.57
2023-02-25T10:09:02.443Z,465.64
2023-02-25T10:14:09.764Z,465.33
2023-02-25T10:19:16.894Z,464.80
2023-02-25T10:24:24.088Z,465.29
2023-02-25T10:29:31.284Z,465.68
2023-02-25T10:34:38.440Z,466.13
2023-02-25T10:39:45.619Z,466.50
2023-02-25T10:44:52.865Z,466.60
2023-02-25T10:50:00.111Z,467.00
2023-02-25T10:55:07.286Z,467.48
2023-02-25T11:00:14.487Z,467.79
2023-02-25T11:05:21.690Z,468.40
2023-02-25T11:10:28.902Z,468.81
2023-02-25T11:15:46.872Z,469.18
2023-02-25T11:20:43.372Z,470.38
2023-02-25T11:25:50.603Z,470.27
2023-02-25T11:30:57.886Z,471.10
2023-02-25T11:36:04.944Z,471.12
2023-02-25T11:41:12.157Z,471.59
2023-02-25T11:46:19.423Z,472.35
2023-02-25T11:51:26.548Z,473.01
2023-02-25T11:56:33.790Z,473.49
2023-02-25T12:01:40.986Z,473.26
2023-02-25T12:06:48.465Z,473.00
2023-02-25T12:11:55.683Z,474.24
2023-02-25T12:17:02.980Z,473.67
2023-02-25T12:22:10.125Z,473.34
2023-02-25T12:27:17.297Z,473.76
2023-02-25T12:32:24.548Z,472.75
2023-02-25T12:37:31.671Z,471.80
2023-02-25T12:42:38.841Z,472.25
2023-02-25T12:47:46.106Z,472.12
2023-02-25T12:52:53.318Z,471.99
2023-02-25T12:58:00.516Z,471.67
2023-02-25T13:03:07.769Z,470.59
2023-02-25T13:08:14.970Z,470.01
2023-02-25T13:13:22.215Z,470.09
2023-02-25T13:18:29.500Z,470.23
2023-02-25T13:23:36.678Z,469.61
2023-02-25T13:28:44.143Z,470.35
2023-02-25T13:33:51.535Z,470.34
2023-02-25T13:38:58.706Z,469.14
2023-02-25T13:44:05.935Z,469.18
2023-02-25T13:49:13.202Z,467.93
2023-02-25T13:54:20.435Z,467.78
2023-02-25T13:59:27.644Z,467.20
2023-02-25T14:04:35.143Z,466.39
2023-02-25T14:09:42.393Z,466.29
2023-02-25T14:14:49.577Z,465.62
2023-02-25T14:19:57.038Z,465.37
2023-02-25T14:25:05.550Z,465.33
2023-02-25T14:30:12.942Z,465.07
2023-02-25T14:35:20.234Z,464.79
2023-02-25T14:40:27.678Z,464.11
2023-02-25T14:45:35.063Z,463.90
2023-02-25T14:50:42.624Z,464.48
2023-02-25T14:55:49.898Z,464.05
2023-02-25T15:00:57.154Z,463.97
2023-02-25T15:06:04.673Z,465.03
2023-02-25T15:11:12.343Z,465.95
2023-02-25T15:16:19.780Z,465.94
2023-02-25T15:21:26.990Z,466.33
2023-02-25T15:26:34.204Z,465.96
2023-02-25T15:31:41.656Z,465.71
2023-02-25T15:36:49.115Z,466.16
2023-02-25T15:41:56.429Z,466.02
2023-02-25T15:47:03.626Z,465.63
2023-02-25T15:52:10.821Z,465.44
2023-02-25T15:57:18.309Z,465.49
2023-02-25T16:02:25.923Z,464.76
2023-02-25T16:07:33.573Z,464.93
2023-02-25T16:12:42.159Z,464.23
2023-02-25T16:17:48.533Z,464.16
2023-02-25T16:22:56.018Z,463.22
2023-02-25T16:28:03.531Z,463.23
2023-02-25T16:33:11.008Z,461.91
2023-02-25T16:38:18.287Z,462.42
2023-02-25T16:43:25.715Z,461.88
2023-02-25T16:48:33.335Z,460.96
2023-02-25T16:53:40.910Z,461.04
2023-02-25T16:58:48.453Z,460.17
2023-02-25T17:03:56.093Z,459.80
2023-02-25T17:09:03.600Z,459.71
2023-02-25T17:14:10.997Z,459.19
2023-02-25T17:19:18.398Z,458.96
2023-02-25T17:24:25.886Z,458.48
2023-02-25T17:29:33.424Z,457.87
2023-02-25T17:34:41.051Z,457.76
2023-02-25T17:39:48.793Z,457.38
2023-02-25T17:44:56.371Z,456.61
2023-02-25T17:50:03.986Z,456.23
2023-02-25T17:55:11.420Z,456.26
2023-02-25T18:00:18.891Z,455.86
2023-02-25T18:05:26.524Z,454.94
2023-02-25T18:10:34.170Z,454.69
2023-02-25T18:15:42.911Z,455.19
2023-02-25T18:20:50.498Z,455.44
2023-02-25T18:25:58.135Z,455.26
2023-02-25T18:31:05.735Z,455.66
2023-02-25T18:36:13.021Z,456.16
2023-02-25T18:41:20.669Z,455.63
2023-02-25T18:46:28.488Z,455.73
2023-02-25T18:51:35.972Z,456.19
2023-02-25T18:56:43.610Z,456.68
2023-02-25T19:01:51.309Z,456.70
2023-02-25T19:06:58.708Z,456.29
2023-02-25T19:12:06.351Z,457.11
2023-02-25T19:17:13.948Z,456.68
2023-02-25T19:22:21.556Z,456.74
2023-02-25T19:27:29.198Z,456.42
2023-02-25T19:32:36.789Z,456.09
2023-02-25T19:37:44.402Z,456.34
2023-02-25T19:42:52.043Z,455.56
2023-02-25T19:47:59.356Z,456.02
2023-02-25T19:53:06.930Z,456.25
2023-02-25T19:58:14.533Z,455.94
2023-02-25T20:03:22.165Z,455.99
2023-02-25T20:08:29.524Z,455.90
2023-02-25T20:13:37.009Z,455.37
2023-02-25T20:18:44.308Z,454.81
2023-02-25T20:23:51.495Z,454.87
2023-02-25T20:28:59.036Z,455.20
2023-02-25T20:34:06.733Z,455.59
2023-02-25T20:39:14.342Z,455.55
2023-02-25T20:44:22.291Z,455.37
2023-02-25T20:49:29.891Z,455.82
2023-02-25T20:54:37.597Z,455.55
2023-02-25T20:59:45.226Z,455.71
2023-02-25T21:04:52.579Z,456.54
2023-02-25T21:09:59.898Z,456.65
2023-02-25T21:15:07.471Z,455.59
2023-02-25T21:20:15.659Z,456.01
2023-02-25T21:25:23.083Z,455.62
2023-02-25T21:30:30.850Z,456.80
2023-02-25T21:35:38.409Z,456.53
2023-02-25T21:40:46.023Z,455.97
2023-02-25T21:45:53.437Z,455.82
2023-02-25T21:51:00.568Z,455.95
2023-02-25T21:56:08.043Z,454.98
2023-02-25T22:01:15.771Z,455.23
2023-02-25T22:06:23.862Z,455.22
2023-02-25T22:11:30.785Z,455.30
2023-02-25T22:16:38.503Z,455.72
2023-02-25T22:21:45.719Z,455.80
2023-02-25T22:26:52.931Z,456.21
2023-02-25T22:32:00.421Z,456.07
2023-02-25T22:37:07.358Z,456.44
2023-02-25T22:42:14.604Z,456.54
2023-02-25T22:47:21.812Z,456.85
2023-02-25T22:52:28.974Z,457.08
2023-02-25T22:57:36.144Z,456.21
2023-02-25T23:02:43.390Z,456.28
2023-02-25T23:07:50.515Z,455.79
2023-02-25T23:12:57.682Z,455.05
2023-02-25T23:18:04.925Z,454.59
2023-02-25T23:23:12.066Z,453.33
2023-02-25T23:28:19.261Z,452.08
2023-02-25T23:33:26.458Z,452.04
2023-02-25T23:38:33.623Z,451.49
2023-02-25T23:43:40.820Z,451.23
2023-02-25T23:48:48.020Z,451.27
2023-02-25T23:53:55.200Z,450.81
2023-02-25T23:59:02.354Z,451.31
